Ship Status Report: callsign BATEU07

sailwx.info

Track history (hours):
 
Tides and Currents Weather Stations Pressure Air Temp Water Temp Dewpoint Dewpoint Depression Visibility Wind Speed Wind Dir Waves Ship Positions

Callsign BATEU07 (name unknown)

Last reported at 2018-Feb-20 15:00 UTC. Time now 2018-Feb-20 15:52 UTC.
Position N 46°00' W 045°42'.

Wind from 310 at 24 knots

Barometer 1026.3 mb
Air temperature 0.5 ° C
Dewpoint -4.3 ° C

Date/timePositionNaut miles runAvg speedWind from/ knotsBaromVisibWave heightAir tempDewpointWater temp
2018-Feb-20 15:00N 46°00' W 045°42'1817.7 310 / 241026.3 0.5-4.3
2018-Feb-20 14:00N 46°06' W 046°06'1716.6 310 / 271027.5 -0.0-4.5
2018-Feb-20 13:00N 46°06' W 046°30'1212.5 300 / 221027.7 -1.0-5.0
2018-Feb-20 12:00N 46°06' W 046°48'3416.9 280 / 171028.0 -1.7-5.1
2018-Feb-20 10:00N 46°12' W 047°36'1716.6 290 / 191028.8 -3.0-5.8
2018-Feb-20 09:00N 46°12' W 048°00'1716.6 290 / 201028.9 -3.0-6.2
2018-Feb-20 08:00N 46°12' W 048°24'1716.6 280 / 171030.0 -2.8-6.3
2018-Feb-20 07:00N 46°12' W 048°48'1817.6 280 / 191030.1 -2.8-6.5
2018-Feb-20 06:00N 46°18' W 049°12'1716.6 280 / 171030.6 -2.8-6.6
2018-Feb-20 05:00N 46°18' W 049°36'1716.6 320 / 111031.1 -2.8-6.1
2018-Feb-20 04:00N 46°18' W 050°00'1716.6 340 / 121031.0 -3.1-6.3
2018-Feb-20 03:00N 46°18' W 050°24'1716.6 350 / 141031.5 -3.3-6.5
2018-Feb-20 02:00N 46°18' W 050°48'1716.6 360 / 151031.3 -3.3-6.3
2018-Feb-20 01:00N 46°18' W 051°12'1716.6 350 / 141032.1 -3.2-6.6
2018-Feb-20 00:00N 46°18' W 051°36'2120.7 1032.3 -3.3-6.8
2018-Feb-19 23:00N 46°18' W 052°06'1716.6 010 / 161031.8 -3.2-6.8
2018-Feb-19 22:00N 46°18' W 052°30'1716.6 1032.8 -2.8-6.6
2018-Feb-19 21:00N 46°18' W 052°54'1716.6 020 / 51032.7 -2.5-7.2
2018-Feb-19 20:00N 46°18' W 053°18'1716.6 280 / 191033.9 -2.1-7.7
2018-Feb-19 19:00N 46°18' W 053°42'2120.7 280 / 211033.7 -2.3-7.7
2018-Feb-19 18:00N 46°18' W 054°12'1716.6 280 / 161033.4 -2.6-8.1
2018-Feb-19 17:00N 46°18' W 054°36'1716.6 290 / 131032.9 -2.7-8.1
2018-Feb-19 16:00N 46°18' W 055°00'1817.6 330 / 121033.4 -2.5-8.3
2018-Feb-19 15:00N 46°24' W 055°24'1817.6 1033.5 -2.8-9.1
2018-Feb-19 14:00N 46°30' W 055°48'1817.6 1033.6 -3.0-8.6
2018-Feb-19 13:00N 46°36' W 056°12'1817.5 330 / 121033.0 -3.0-7.8
2018-Feb-19 12:00N 46°42' W 056°36'3919.4 350 / 121032.3 -3.3-8.2
2018-Feb-19 10:00N 46°54' W 057°30'1717.4 350 / 131030.2 -3.7-7.7
2018-Feb-19 09:00N 47°00' W 057°54'1717.4 330 / 121030.1 -3.5-7.2
2018-Feb-19 08:00N 47°06' W 058°18'3517.4 300 / 141029.2 -3.6-6.8
2018-Feb-19 06:00N 47°18' W 059°06'1717.3 300 / 201028.1 -4.3-6.7
2018-Feb-19 05:00N 47°24' W 059°30'2020.2 300 / 151027.0 -5.1-7.6
2018-Feb-19 04:00N 47°36' W 059°54'2019.7 290 / 131025.4 -5.2-8.1
2018-Feb-19 03:00N 47°54' W 060°06'1717.0 290 / 111024.6 -5.3-7.7
2018-Feb-19 02:00N 48°06' W 060°24'5719.1 270 / 81023.9 -5.8-7.7
2018-Feb-18 23:00N 48°30' W 061°42'1717.0 210 / 91021.4 -6.2-7.8
2018-Feb-18 22:00N 48°36' W 062°06'1717.0 210 / 71020.7 -5.8-7.7
2018-Feb-18 21:00N 48°42' W 062°30'3618.2 210 / 111019.2 -5.6-7.5
2018-Feb-18 19:00N 49°00' W 063°18'1716.8 190 / 141017.6 -4.8-7.6
2018-Feb-18 18:00N 49°06' W 063°42'1716.8 190 / 181016.5 -4.2-7.6
2018-Feb-18 17:00N 49°12' W 064°06'1716.8 170 / 91016.7 -3.8-8.3
2018-Feb-18 16:00N 49°18' W 064°30'5417.9 210 / 71017.1 -4.1-8.7
2018-Feb-18 13:00N 49°36' W 065°48'1716.7 140 / 71016.3 -5.1-9.8
2018-Feb-18 12:00N 49°30' W 066°12'1716.7 200 / 41015.0 -5.2-11.3
2018-Feb-18 11:00N 49°24' W 066°36'2020.4 190 / 121014.8 -5.5-13.5
2018-Feb-18 10:00N 49°18' W 067°06'1716.8 190 / 181015.3 -5.7-12.3
2018-Feb-18 09:00N 49°12' W 067°30'2323.0 170 / 191015.0 -6.7-13.5
2018-Feb-18 08:00N 49°00' W 068°00'1716.9 170 / 161014.9 -5.0-12.3
2018-Feb-18 07:00N 48°54' W 068°24'2019.8 190 / 211015.1 -4.7-13.0
2018-Feb-18 06:00N 48°42' W 068°48'1716.9 180 / 211015.4 -4.1-12.2
2018-Feb-18 05:00N 48°30' W 069°06'3618.0 180 / 231016.2 -4.5-13.2
2018-Feb-18 03:00N 48°00' W 069°36'2221.7 190 / 221017.9 -3.7-10.8
2018-Feb-18 02:00N 47°42' W 069°54'1717.1 220 / 141019.1 -4.0-12.3
2018-Feb-18 01:00N 47°30' W 070°12'1717.1 240 / 101019.8 -4.3-11.5
2018-Feb-18 00:00N 47°18' W 070°30'3618.2 190 / 131020.0 -4.2-11.8
2018-Feb-17 22:00N 46°48' W 071°00'8 8.2 100 / 51022.3 -5.2-11.2
2018-Feb-17 21:00N 46°48' W 071°12'1817.5 190 / 11023.5 -4.7-12.8
2018-Feb-17 20:00N 46°42' W 071°36'1413.7 100 / 31023.6 -5.3-12.3
2018-Feb-17 19:00N 46°36' W 071°54'1413.8 220 / 91024.4 -4.0-13.1
2018-Feb-17 18:00N 46°30' W 072°12'1717.3 240 / 101024.2 -5.2-12.3
2018-Feb-17 17:00N 46°18' W 072°30'8 8.3 210 / 141025.4 -5.8-12.3
2018-Feb-17 16:00N 46°18' W 072°42'1010.2 190 / 51026.3 -7.5-12.1
2018-Feb-17 15:00N 46°12' W 072°54'1010.3 200 / 11026.8 -11.3-15.3
2018-Feb-17 14:00N 46°06' W 073°06'1514.6 200 / 41026.7 -8.5-12.8
2018-Feb-17 13:00N 45°54' W 073°18'1514.6 210 / 51026.3 -10.1-14.0
2018-Feb-17 12:00N 45°42' W 073°30'   180 / 41025.8 -9.3-13.8
2018-Feb-12 07:00N 45°36' W 073°30'7 7.3 240 / 151014.1 -3.3-5.7
2018-Feb-12 06:00N 45°42' W 073°24'7 7.3 230 / 231010.9 -1.6-3.3
2018-Feb-12 05:00N 45°48' W 073°18'1312.7 220 / 241008.4 -0.7-1.7
2018-Feb-12 04:00N 46°00' W 073°12'17 8.7 210 / 181005.8 -1.0-1.7
2018-Feb-12 02:00N 46°12' W 072°54'14 6.9 020 / 41004.0 -2.2-3.1
2018-Feb-12 00:00N 46°18' W 072°36'1010.2 060 / 141005.3 -3.3-4.5
2018-Feb-11 23:00N 46°24' W 072°24'1010.2 070 / 231008.0 -3.8-5.2
2018-Feb-11 22:00N 46°30' W 072°12'7114.3 070 / 221010.3 -5.3-7.3
2018-Feb-11 17:00N 47°06' W 070°42'2019.8 030 / 211024.2 -5.0-10.1
2018-Feb-11 16:00N 47°24' W 070°30'2020.2 080 / 111026.0 -6.8-11.0
2018-Feb-11 15:00N 47°36' W 070°06'1717.1 040 / 121027.1 -7.3-10.8
2018-Feb-11 14:00N 47°48' W 069°48'2019.7 010 / 101027.5 -8.3-12.2
2018-Feb-11 13:00N 48°06' W 069°36'1414.4 030 / 131027.5 -10.1-14.7
2018-Feb-11 12:00N 48°18' W 069°24'1010.0 350 / 101027.1 -11.3-15.8
2018-Feb-11 11:00N 48°24' W 069°12'5714.1 360 / 131026.3 -10.7-14.8
2018-Feb-11 07:00N 49°00' W 068°06'10813.5 340 / 151024.3 -8.6-13.3
2018-Feb-10 23:00N 49°36' W 065°30'1313.1 300 / 51020.0 -7.3-11.0
2018-Feb-10 22:00N 49°30' W 065°12'1313.2 320 / 61019.6 -6.5-9.8
2018-Feb-10 21:00N 49°24' W 064°54'1313.2 190 / 81019.8 -5.5-9.3
2018-Feb-10 20:00N 49°18' W 064°36'1211.7 180 / 81020.4 -5.5-9.2
2018-Feb-10 19:00N 49°18' W 064°18'1313.2 120 / 141021.4 -6.3-9.3
2018-Feb-10 18:00N 49°12' W 064°00'1313.2 120 / 121023.3 -7.5-9.7
2018-Feb-10 17:00N 49°06' W 063°42'10 9.9 180 / 71026.0 -7.7-10.2
2018-Feb-10 16:00N 49°00' W 063°30'1313.3 180 / 71026.3 -7.8-10.8
2018-Feb-10 15:00N 48°54' W 063°12'   190 / 81028.3 -8.3-11.0
Track history (hours):
 
Tides and Currents Weather Stations Pressure Air Temp Water Temp Dewpoint Dewpoint Depression Visibility Wind Speed Wind Dir Waves Ship Positions

Callsign BATEU07 (name unknown)

Last reported at 2018-Feb-20 15:00 UTC. Time now 2018-Feb-20 15:52 UTC.
Position N 46°00' W 045°42'.

Wind from 310 at 24 knots

Barometer 1026.3 mb
Air temperature 0.5 ° C
Dewpoint -4.3 ° C

Date/timePositionNaut miles runAvg speedWind from/ knotsBaromVisibWave heightAir tempDewpointWater temp
2018-Feb-20 15:00N 46°00' W 045°42'1817.7 310 / 241026.3 0.5-4.3
2018-Feb-20 14:00N 46°06' W 046°06'1716.6 310 / 271027.5 -0.0-4.5
2018-Feb-20 13:00N 46°06' W 046°30'1212.5 300 / 221027.7 -1.0-5.0
2018-Feb-20 12:00N 46°06' W 046°48'3416.9 280 / 171028.0 -1.7-5.1
2018-Feb-20 10:00N 46°12' W 047°36'1716.6 290 / 191028.8 -3.0-5.8
2018-Feb-20 09:00N 46°12' W 048°00'1716.6 290 / 201028.9 -3.0-6.2
2018-Feb-20 08:00N 46°12' W 048°24'1716.6 280 / 171030.0 -2.8-6.3
2018-Feb-20 07:00N 46°12' W 048°48'1817.6 280 / 191030.1 -2.8-6.5
2018-Feb-20 06:00N 46°18' W 049°12'1716.6 280 / 171030.6 -2.8-6.6
2018-Feb-20 05:00N 46°18' W 049°36'1716.6 320 / 111031.1 -2.8-6.1
2018-Feb-20 04:00N 46°18' W 050°00'1716.6 340 / 121031.0 -3.1-6.3
2018-Feb-20 03:00N 46°18' W 050°24'1716.6 350 / 141031.5 -3.3-6.5
2018-Feb-20 02:00N 46°18' W 050°48'1716.6 360 / 151031.3 -3.3-6.3
2018-Feb-20 01:00N 46°18' W 051°12'1716.6 350 / 141032.1 -3.2-6.6
2018-Feb-20 00:00N 46°18' W 051°36'2120.7 1032.3 -3.3-6.8
2018-Feb-19 23:00N 46°18' W 052°06'1716.6 010 / 161031.8 -3.2-6.8
2018-Feb-19 22:00N 46°18' W 052°30'1716.6 1032.8 -2.8-6.6
2018-Feb-19 21:00N 46°18' W 052°54'1716.6 020 / 51032.7 -2.5-7.2
2018-Feb-19 20:00N 46°18' W 053°18'1716.6 280 / 191033.9 -2.1-7.7
2018-Feb-19 19:00N 46°18' W 053°42'2120.7 280 / 211033.7 -2.3-7.7
2018-Feb-19 18:00N 46°18' W 054°12'1716.6 280 / 161033.4 -2.6-8.1
2018-Feb-19 17:00N 46°18' W 054°36'1716.6 290 / 131032.9 -2.7-8.1
2018-Feb-19 16:00N 46°18' W 055°00'1817.6 330 / 121033.4 -2.5-8.3
2018-Feb-19 15:00N 46°24' W 055°24'1817.6 1033.5 -2.8-9.1
2018-Feb-19 14:00N 46°30' W 055°48'1817.6 1033.6 -3.0-8.6
2018-Feb-19 13:00N 46°36' W 056°12'1817.5 330 / 121033.0 -3.0-7.8
2018-Feb-19 12:00N 46°42' W 056°36'3919.4 350 / 121032.3 -3.3-8.2
2018-Feb-19 10:00N 46°54' W 057°30'1717.4 350 / 131030.2 -3.7-7.7
2018-Feb-19 09:00N 47°00' W 057°54'1717.4 330 / 121030.1 -3.5-7.2
2018-Feb-19 08:00N 47°06' W 058°18'3517.4 300 / 141029.2 -3.6-6.8
2018-Feb-19 06:00N 47°18' W 059°06'1717.3 300 / 201028.1 -4.3-6.7
2018-Feb-19 05:00N 47°24' W 059°30'2020.2 300 / 151027.0 -5.1-7.6
2018-Feb-19 04:00N 47°36' W 059°54'2019.7 290 / 131025.4 -5.2-8.1
2018-Feb-19 03:00N 47°54' W 060°06'1717.0 290 / 111024.6 -5.3-7.7
2018-Feb-19 02:00N 48°06' W 060°24'5719.1 270 / 81023.9 -5.8-7.7
2018-Feb-18 23:00N 48°30' W 061°42'1717.0 210 / 91021.4 -6.2-7.8
2018-Feb-18 22:00N 48°36' W 062°06'1717.0 210 / 71020.7 -5.8-7.7
2018-Feb-18 21:00N 48°42' W 062°30'3618.2 210 / 111019.2 -5.6-7.5
2018-Feb-18 19:00N 49°00' W 063°18'1716.8 190 / 141017.6 -4.8-7.6
2018-Feb-18 18:00N 49°06' W 063°42'1716.8 190 / 181016.5 -4.2-7.6
2018-Feb-18 17:00N 49°12' W 064°06'1716.8 170 / 91016.7 -3.8-8.3
2018-Feb-18 16:00N 49°18' W 064°30'5417.9 210 / 71017.1 -4.1-8.7
2018-Feb-18 13:00N 49°36' W 065°48'1716.7 140 / 71016.3 -5.1-9.8
2018-Feb-18 12:00N 49°30' W 066°12'1716.7 200 / 41015.0 -5.2-11.3
2018-Feb-18 11:00N 49°24' W 066°36'2020.4 190 / 121014.8 -5.5-13.5
2018-Feb-18 10:00N 49°18' W 067°06'1716.8 190 / 181015.3 -5.7-12.3
2018-Feb-18 09:00N 49°12' W 067°30'2323.0 170 / 191015.0 -6.7-13.5
2018-Feb-18 08:00N 49°00' W 068°00'1716.9 170 / 161014.9 -5.0-12.3
2018-Feb-18 07:00N 48°54' W 068°24'2019.8 190 / 211015.1 -4.7-13.0
2018-Feb-18 06:00N 48°42' W 068°48'1716.9 180 / 211015.4 -4.1-12.2
2018-Feb-18 05:00N 48°30' W 069°06'3618.0 180 / 231016.2 -4.5-13.2
2018-Feb-18 03:00N 48°00' W 069°36'2221.7 190 / 221017.9 -3.7-10.8
2018-Feb-18 02:00N 47°42' W 069°54'1717.1 220 / 141019.1 -4.0-12.3
2018-Feb-18 01:00N 47°30' W 070°12'1717.1 240 / 101019.8 -4.3-11.5
2018-Feb-18 00:00N 47°18' W 070°30'3618.2 190 / 131020.0 -4.2-11.8
2018-Feb-17 22:00N 46°48' W 071°00'8 8.2 100 / 51022.3 -5.2-11.2
2018-Feb-17 21:00N 46°48' W 071°12'1817.5 190 / 11023.5 -4.7-12.8
2018-Feb-17 20:00N 46°42' W 071°36'1413.7 100 / 31023.6 -5.3-12.3
2018-Feb-17 19:00N 46°36' W 071°54'1413.8 220 / 91024.4 -4.0-13.1
2018-Feb-17 18:00N 46°30' W 072°12'1717.3 240 / 101024.2 -5.2-12.3
2018-Feb-17 17:00N 46°18' W 072°30'8 8.3 210 / 141025.4 -5.8-12.3
2018-Feb-17 16:00N 46°18' W 072°42'1010.2 190 / 51026.3 -7.5-12.1
2018-Feb-17 15:00N 46°12' W 072°54'1010.3 200 / 11026.8 -11.3-15.3
2018-Feb-17 14:00N 46°06' W 073°06'1514.6 200 / 41026.7 -8.5-12.8
2018-Feb-17 13:00N 45°54' W 073°18'1514.6 210 / 51026.3 -10.1-14.0
2018-Feb-17 12:00N 45°42' W 073°30'   180 / 41025.8 -9.3-13.8
2018-Feb-12 07:00N 45°36' W 073°30'7 7.3 240 / 151014.1 -3.3-5.7
2018-Feb-12 06:00N 45°42' W 073°24'7 7.3 230 / 231010.9 -1.6-3.3
2018-Feb-12 05:00N 45°48' W 073°18'1312.7 220 / 241008.4 -0.7-1.7
2018-Feb-12 04:00N 46°00' W 073°12'17 8.7 210 / 181005.8 -1.0-1.7
2018-Feb-12 02:00N 46°12' W 072°54'14 6.9 020 / 41004.0 -2.2-3.1
2018-Feb-12 00:00N 46°18' W 072°36'1010.2 060 / 141005.3 -3.3-4.5
2018-Feb-11 23:00N 46°24' W 072°24'1010.2 070 / 231008.0 -3.8-5.2
2018-Feb-11 22:00N 46°30' W 072°12'7114.3 070 / 221010.3 -5.3-7.3
2018-Feb-11 17:00N 47°06' W 070°42'2019.8 030 / 211024.2 -5.0-10.1
2018-Feb-11 16:00N 47°24' W 070°30'2020.2 080 / 111026.0 -6.8-11.0
2018-Feb-11 15:00N 47°36' W 070°06'1717.1 040 / 121027.1 -7.3-10.8
2018-Feb-11 14:00N 47°48' W 069°48'2019.7 010 / 101027.5 -8.3-12.2
2018-Feb-11 13:00N 48°06' W 069°36'1414.4 030 / 131027.5 -10.1-14.7
2018-Feb-11 12:00N 48°18' W 069°24'1010.0 350 / 101027.1 -11.3-15.8
2018-Feb-11 11:00N 48°24' W 069°12'5714.1 360 / 131026.3 -10.7-14.8
2018-Feb-11 07:00N 49°00' W 068°06'10813.5 340 / 151024.3 -8.6-13.3
2018-Feb-10 23:00N 49°36' W 065°30'1313.1 300 / 51020.0 -7.3-11.0
2018-Feb-10 22:00N 49°30' W 065°12'1313.2 320 / 61019.6 -6.5-9.8
2018-Feb-10 21:00N 49°24' W 064°54'1313.2 190 / 81019.8 -5.5-9.3
2018-Feb-10 20:00N 49°18' W 064°36'1211.7 180 / 81020.4 -5.5-9.2
2018-Feb-10 19:00N 49°18' W 064°18'1313.2 120 / 141021.4 -6.3-9.3
2018-Feb-10 18:00N 49°12' W 064°00'1313.2 120 / 121023.3 -7.5-9.7
2018-Feb-10 17:00N 49°06' W 063°42'10 9.9 180 / 71026.0 -7.7-10.2
2018-Feb-10 16:00N 49°00' W 063°30'1313.3 180 / 71026.3 -7.8-10.8
2018-Feb-10 15:00N 48°54' W 063°12'   190 / 81028.3 -8.3-11.0

Dump ship's entire track history